sensor_id;sensor_type;location;lat;lon;timestamp;pressure;altitude;pressure_sealevel;temperature;humidity
3668;BME280;24099;47.102;15.440;2022-09-27T00:01:05;95768.06;;;12.88;100.00
3668;BME280;24099;47.102;15.440;2022-09-27T00:03:34;95764.41;;;12.89;100.00
3668;BME280;24099;47.102;15.440;2022-09-27T00:06:04;95763.47;;;12.83;100.00
3668;BME280;24099;47.102;15.440;2022-09-27T00:08:34;95759.00;;;12.84;100.00
3668;BME280;24099;47.102;15.440;2022-09-27T00:11:06;95749.59;;;12.64;100.00
3668;BME280;24099;47.102;15.440;2022-09-27T00:13:35;95754.41;;;12.67;100.00
3668;BME280;24099;47.102;15.440;2022-09-27T00:16:03;95755.19;;;12.80;100.00
3668;BME280;24099;47.102;15.440;2022-09-27T00:18:32;95755.09;;;12.86;100.00
3668;BME280;24099;47.102;15.440;2022-09-27T00:21:06;95747.06;;;12.81;100.00
3668;BME280;24099;47.102;15.440;2022-09-27T00:23:35;95752.91;;;12.83;100.00
3668;BME280;24099;47.102;15.440;2022-09-27T00:26:03;95740.16;;;12.80;100.00
3668;BME280;24099;47.102;15.440;2022-09-27T00:28:31;95741.31;;;12.61;100.00
3668;BME280;24099;47.102;15.440;2022-09-27T00:31:00;95736.28;;;12.71;100.00
3668;BME280;24099;47.102;15.440;2022-09-27T00:33:28;95733.19;;;12.74;100.00
3668;BME280;24099;47.102;15.440;2022-09-27T00:36:05;95731.69;;;12.78;100.00
3668;BME280;24099;47.102;15.440;2022-09-27T00:38:33;95717.69;;;12.77;100.00
3668;BME280;24099;47.102;15.440;2022-09-27T00:41:00;95719.03;;;12.80;100.00
3668;BME280;24099;47.102;15.440;2022-09-27T00:43:44;95714.25;;;12.77;100.00
3668;BME280;24099;47.102;15.440;2022-09-27T00:46:18;95705.19;;;12.73;100.00
3668;BME280;24099;47.102;15.440;2022-09-27T00:48:58;95710.69;;;12.71;100.00
3668;BME280;24099;47.102;15.440;2022-09-27T00:51:28;95715.59;;;12.80;100.00
3668;BME280;24099;47.102;15.440;2022-09-27T00:53:57;95715.06;;;12.77;100.00
3668;BME280;24099;47.102;15.440;2022-09-27T00:56:29;95719.84;;;12.81;100.00
3668;BME280;24099;47.102;15.440;2022-09-27T00:59:03;95707.22;;;12.83;100.00
3668;BME280;24099;47.102;15.440;2022-09-27T01:01:33;95708.59;;;12.85;100.00
3668;BME280;24099;47.102;15.440;2022-09-27T01:04:07;95700.56;;;12.80;100.00
3668;BME280;24099;47.102;15.440;2022-09-27T01:06:37;95704.50;;;12.77;100.00
3668;BME280;24099;47.102;15.440;2022-09-27T01:09:06;95697.22;;;12.85;100.00
3668;BME280;24099;47.102;15.440;2022-09-27T01:11:41;95703.44;;;12.90;100.00
3668;BME280;24099;47.102;15.440;2022-09-27T01:14:28;95696.53;;;12.89;100.00
3668;BME280;24099;47.102;15.440;2022-09-27T01:17:12;95696.44;;;12.84;100.00
3668;BME280;24099;47.102;15.440;2022-09-27T01:20:16;95685.53;;;12.92;100.00
3668;BME280;24099;47.102;15.440;2022-09-27T01:23:03;95682.88;;;12.81;100.00
3668;BME280;24099;47.102;15.440;2022-09-27T01:25:57;95678.56;;;12.74;100.00
3668;BME280;24099;47.102;15.440;2022-09-27T01:28:54;95668.00;;;12.74;100.00
3668;BME280;24099;47.102;15.440;2022-09-27T01:31:32;95664.50;;;12.86;100.00
3668;BME280;24099;47.102;15.440;2022-09-27T01:34:05;95665.09;;;12.88;100.00
3668;BME280;24099;47.102;15.440;2022-09-27T01:36:42;95653.03;;;12.92;100.00
3668;BME280;24099;47.102;15.440;2022-09-27T01:39:31;95647.97;;;12.90;100.00
3668;BME280;24099;47.102;15.440;2022-09-27T01:42:34;95639.97;;;12.62;100.00
3668;BME280;24099;47.102;15.440;2022-09-27T01:45:11;95639.88;;;12.68;100.00
3668;BME280;24099;47.102;15.440;2022-09-27T01:47:56;95634.31;;;12.82;100.00
3668;BME280;24099;47.102;15.440;2022-09-27T01:50:50;95632.59;;;12.87;100.00
3668;BME280;24099;47.102;15.440;2022-09-27T01:53:22;95626.75;;;12.85;100.00
3668;BME280;24099;47.102;15.440;2022-09-27T01:56:23;95625.25;;;12.89;100.00
3668;BME280;24099;47.102;15.440;2022-09-27T01:59:09;95624.22;;;12.90;100.00
3668;BME280;24099;47.102;15.440;2022-09-27T02:01:49;95611.56;;;12.92;100.00
3668;BME280;24099;47.102;15.440;2022-09-27T02:04:23;95615.13;;;12.98;100.00
3668;BME280;24099;47.102;15.440;2022-09-27T02:07:01;95611.81;;;12.91;100.00
3668;BME280;24099;47.102;15.440;2022-09-27T02:09:44;95613.75;;;12.95;100.00
3668;BME280;24099;47.102;15.440;2022-09-27T02:12:20;95604.00;;;12.96;100.00
3668;BME280;24099;47.102;15.440;2022-09-27T02:14:54;95601.94;;;12.86;100.00
3668;BME280;24099;47.102;15.440;2022-09-27T02:17:36;95597.34;;;12.93;100.00
3668;BME280;24099;47.102;15.440;2022-09-27T02:20:14;95597.91;;;12.95;100.00
3668;BME280;24099;47.102;15.440;2022-09-27T02:22:54;95598.03;;;12.89;100.00
3668;BME280;24099;47.102;15.440;2022-09-27T02:25:27;95599.88;;;12.88;100.00
3668;BME280;24099;47.102;15.440;2022-09-27T02:28:01;95599.19;;;12.93;100.00
3668;BME280;24099;47.102;15.440;2022-09-27T02:30:35;95600.88;;;12.99;100.00
3668;BME280;24099;47.102;15.440;2022-09-27T02:33:22;95605.03;;;12.95;100.00
3668;BME280;24099;47.102;15.440;2022-09-27T02:35:52;95608.25;;;12.97;100.00
3668;BME280;24099;47.102;15.440;2022-09-27T02:38:20;95607.22;;;12.86;100.00
3668;BME280;24099;47.102;15.440;2022-09-27T02:40:48;95612.28;;;12.88;100.00
3668;BME280;24099;47.102;15.440;2022-09-27T02:43:18;95602.31;;;12.78;100.00
3668;BME280;24099;47.102;15.440;2022-09-27T02:46:00;95608.50;;;12.84;100.00
3668;BME280;24099;47.102;15.440;2022-09-27T02:48:40;95600.56;;;12.84;100.00
3668;BME280;24099;47.102;15.440;2022-09-27T02:51:25;95595.75;;;12.81;100.00
3668;BME280;24099;47.102;15.440;2022-09-27T02:54:10;95591.38;;;12.86;100.00
3668;BME280;24099;47.102;15.440;2022-09-27T02:57:26;95595.16;;;12.90;100.00
3668;BME280;24099;47.102;15.440;2022-09-27T03:00:06;95591.84;;;12.83;100.00
3668;BME280;24099;47.102;15.440;2022-09-27T03:02:54;95590.41;;;12.75;100.00
3668;BME280;24099;47.102;15.440;2022-09-27T03:05:40;95583.75;;;12.61;100.00
3668;BME280;24099;47.102;15.440;2022-09-27T03:08:12;95586.28;;;12.68;100.00
3668;BME280;24099;47.102;15.440;2022-09-27T03:10:40;95589.59;;;12.75;100.00
3668;BME280;24099;47.102;15.440;2022-09-27T03:13:08;95579.38;;;12.79;100.00
3668;BME280;24099;47.102;15.440;2022-09-27T03:15:35;95573.28;;;12.78;100.00
3668;BME280;24099;47.102;15.440;2022-09-27T03:18:04;95574.41;;;12.82;100.00
3668;BME280;24099;47.102;15.440;2022-09-27T03:20:43;95571.44;;;12.79;100.00
3668;BME280;24099;47.102;15.440;2022-09-27T03:23:23;95569.84;;;12.77;100.00
3668;BME280;24099;47.102;15.440;2022-09-27T03:25:51;95558.56;;;12.82;100.00
3668;BME280;24099;47.102;15.440;2022-09-27T03:28:19;95551.53;;;12.88;100.00
3668;BME280;24099;47.102;15.440;2022-09-27T03:30:47;95540.06;;;12.82;100.00
3668;BME280;24099;47.102;15.440;2022-09-27T03:33:41;95537.13;;;12.79;100.00
3668;BME280;24099;47.102;15.440;2022-09-27T03:36:11;95542.94;;;12.81;100.00
3668;BME280;24099;47.102;15.440;2022-09-27T03:38:39;95529.97;;;12.79;100.00
3668;BME280;24099;47.102;15.440;2022-09-27T03:41:11;95523.53;;;12.87;100.00
3668;BME280;24099;47.102;15.440;2022-09-27T03:43:39;95521.03;;;12.80;100.00
3668;BME280;24099;47.102;15.440;2022-09-27T03:46:06;95512.50;;;12.90;100.00
3668;BME280;24099;47.102;15.440;2022-09-27T03:48:34;95509.53;;;12.86;100.00
3668;BME280;24099;47.102;15.440;2022-09-27T03:51:03;95492.50;;;12.94;100.00
3668;BME280;24099;47.102;15.440;2022-09-27T03:53:31;95484.59;;;12.94;100.00
3668;BME280;24099;47.102;15.440;2022-09-27T03:56:00;95489.47;;;13.02;100.00
3668;BME280;24099;47.102;15.440;2022-09-27T03:58:29;95501.31;;;12.99;100.00
3668;BME280;24099;47.102;15.440;2022-09-27T04:00:56;95491.88;;;13.03;100.00
3668;BME280;24099;47.102;15.440;2022-09-27T04:03:25;95494.28;;;13.05;100.00
3668;BME280;24099;47.102;15.440;2022-09-27T04:06:11;95485.06;;;13.07;100.00
3668;BME280;24099;47.102;15.440;2022-09-27T04:08:43;95490.69;;;13.11;100.00
3668;BME280;24099;47.102;15.440;2022-09-27T04:11:12;95491.72;;;12.93;100.00
3668;BME280;24099;47.102;15.440;2022-09-27T04:13:43;95487.84;;;12.84;100.00
3668;BME280;24099;47.102;15.440;2022-09-27T04:16:11;95485.16;;;12.67;100.00
3668;BME280;24099;47.102;15.440;2022-09-27T04:18:41;95484.94;;;12.69;100.00
3668;BME280;24099;47.102;15.440;2022-09-27T04:21:28;95484.94;;;12.69;100.00
3668;BME280;24099;47.102;15.440;2022-09-27T04:23:56;95484.47;;;12.72;100.00
3668;BME280;24099;47.102;15.440;2022-09-27T04:26:25;95479.13;;;12.84;100.00
3668;BME280;24099;47.102;15.440;2022-09-27T04:29:01;95475.88;;;12.93;100.00
3668;BME280;24099;47.102;15.440;2022-09-27T04:31:29;95474.81;;;12.94;100.00
3668;BME280;24099;47.102;15.440;2022-09-27T04:34:36;95464.94;;;12.73;100.00
3668;BME280;24099;47.102;15.440;2022-09-27T04:37:24;95459.44;;;12.91;100.00
3668;BME280;24099;47.102;15.440;2022-09-27T04:40:00;95450.81;;;12.96;100.00
3668;BME280;24099;47.102;15.440;2022-09-27T04:42:31;95454.78;;;12.82;100.00
3668;BME280;24099;47.102;15.440;2022-09-27T04:44:59;95446.72;;;12.71;100.00
3668;BME280;24099;47.102;15.440;2022-09-27T04:47:27;95450.47;;;12.75;100.00
3668;BME280;24099;47.102;15.440;2022-09-27T04:49:55;95431.97;;;12.59;100.00
3668;BME280;24099;47.102;15.440;2022-09-27T04:52:23;95428.94;;;12.67;100.00
3668;BME280;24099;47.102;15.440;2022-09-27T04:54:51;95425.84;;;12.87;100.00
3668;BME280;24099;47.102;15.440;2022-09-27T04:57:19;95434.19;;;12.95;100.00
3668;BME280;24099;47.102;15.440;2022-09-27T04:59:48;95424.56;;;12.89;100.00
3668;BME280;24099;47.102;15.440;2022-09-27T05:02:19;95422.50;;;12.91;100.00
3668;BME280;24099;47.102;15.440;2022-09-27T05:05:19;95418.91;;;12.97;100.00
3668;BME280;24099;47.102;15.440;2022-09-27T05:07:48;95420.97;;;12.79;100.00
3668;BME280;24099;47.102;15.440;2022-09-27T05:10:27;95419.44;;;12.83;100.00
3668;BME280;24099;47.102;15.440;2022-09-27T05:12:55;95422.53;;;12.80;100.00
3668;BME280;24099;47.102;15.440;2022-09-27T05:15:25;95414.09;;;12.77;100.00
3668;BME280;24099;47.102;15.440;2022-09-27T05:18:13;95417.13;;;12.86;100.00
3668;BME280;24099;47.102;15.440;2022-09-27T05:21:13;95417.78;;;12.93;100.00
3668;BME280;24099;47.102;15.440;2022-09-27T05:23:45;95417.84;;;12.98;100.00
3668;BME280;24099;47.102;15.440;2022-09-27T05:26:13;95421.22;;;12.94;100.00
3668;BME280;24099;47.102;15.440;2022-09-27T05:28:41;95424.56;;;12.89;100.00
3668;BME280;24099;47.102;15.440;2022-09-27T05:31:11;95420.56;;;12.87;100.00
3668;BME280;24099;47.102;15.440;2022-09-27T05:33:40;95421.31;;;12.99;100.00
3668;BME280;24099;47.102;15.440;2022-09-27T05:36:29;95414.72;;;13.01;100.00
3668;BME280;24099;47.102;15.440;2022-09-27T05:38:58;95418.56;;;12.94;100.00
3668;BME280;24099;47.102;15.440;2022-09-27T05:41:26;95412.41;;;12.88;100.00
3668;BME280;24099;47.102;15.440;2022-09-27T05:43:53;95414.38;;;12.81;100.00
3668;BME280;24099;47.102;15.440;2022-09-27T05:46:23;95411.84;;;12.86;100.00
3668;BME280;24099;47.102;15.440;2022-09-27T05:48:52;95409.75;;;12.88;100.00
3668;BME280;24099;47.102;15.440;2022-09-27T05:51:19;95413.19;;;12.89;100.00
3668;BME280;24099;47.102;15.440;2022-09-27T05:53:47;95414.09;;;12.94;100.00
3668;BME280;24099;47.102;15.440;2022-09-27T05:56:23;95412.78;;;12.80;100.00
3668;BME280;24099;47.102;15.440;2022-09-27T05:59:08;95418.38;;;12.84;100.00
3668;BME280;24099;47.102;15.440;2022-09-27T06:01:57;95415.41;;;12.80;100.00
3668;BME280;24099;47.102;15.440;2022-09-27T06:04:43;95412.16;;;12.73;100.00
3668;BME280;24099;47.102;15.440;2022-09-27T06:07:30;95405.59;;;12.75;100.00
3668;BME280;24099;47.102;15.440;2022-09-27T06:10:00;95409.59;;;12.78;100.00
3668;BME280;24099;47.102;15.440;2022-09-27T06:12:27;95407.75;;;12.79;100.00
3668;BME280;24099;47.102;15.440;2022-09-27T06:14:57;95405.59;;;12.75;100.00
3668;BME280;24099;47.102;15.440;2022-09-27T06:17:37;95401.13;;;12.76;100.00
3668;BME280;24099;47.102;15.440;2022-09-27T06:20:14;95403.53;;;12.77;100.00
3668;BME280;24099;47.102;15.440;2022-09-27T06:22:44;95406.22;;;12.83;100.00
3668;BME280;24099;47.102;15.440;2022-09-27T06:25:13;95405.38;;;12.77;100.00
3668;BME280;24099;47.102;15.440;2022-09-27T06:27:54;95400.00;;;12.89;100.00
3668;BME280;24099;47.102;15.440;2022-09-27T06:30:25;95396.31;;;12.90;100.00
3668;BME280;24099;47.102;15.440;2022-09-27T06:32:58;95400.31;;;12.92;100.00
3668;BME280;24099;47.102;15.440;2022-09-27T06:35:38;95393.81;;;13.00;100.00
3668;BME280;24099;47.102;15.440;2022-09-27T06:38:08;95400.78;;;13.06;100.00
3668;BME280;24099;47.102;15.440;2022-09-27T06:40:41;95397.25;;;13.00;100.00
3668;BME280;24099;47.102;15.440;2022-09-27T06:43:20;95405.47;;;12.99;100.00
3668;BME280;24099;47.102;15.440;2022-09-27T06:46:09;95400.78;;;12.89;100.00
3668;BME280;24099;47.102;15.440;2022-09-27T06:49:16;95397.75;;;12.81;100.00
3668;BME280;24099;47.102;15.440;2022-09-27T06:51:46;95400.16;;;12.82;100.00
3668;BME280;24099;47.102;15.440;2022-09-27T06:54:13;95389.03;;;12.97;100.00
3668;BME280;24099;47.102;15.440;2022-09-27T06:56:41;95381.69;;;12.99;100.00
3668;BME280;24099;47.102;15.440;2022-09-27T06:59:08;95393.66;;;13.06;100.00
3668;BME280;24099;47.102;15.440;2022-09-27T07:02:23;95393.59;;;13.01;100.00
3668;BME280;24099;47.102;15.440;2022-09-27T07:05:17;95393.75;;;13.11;100.00
3668;BME280;24099;47.102;15.440;2022-09-27T07:08:09;95392.88;;;13.06;100.00
3668;BME280;24099;47.102;15.440;2022-09-27T07:10:38;95394.91;;;13.16;100.00
3668;BME280;24099;47.102;15.440;2022-09-27T07:13:08;95398.13;;;13.18;100.00
3668;BME280;24099;47.102;15.440;2022-09-27T07:15:38;95395.03;;;13.26;100.00
3668;BME280;24099;47.102;15.440;2022-09-27T07:18:11;95395.03;;;13.26;100.00
3668;BME280;24099;47.102;15.440;2022-09-27T07:20:40;95397.31;;;13.17;100.00
3668;BME280;24099;47.102;15.440;2022-09-27T07:23:10;95401.28;;;13.20;100.00
3668;BME280;24099;47.102;15.440;2022-09-27T07:25:38;95410.91;;;13.26;100.00
3668;BME280;24099;47.102;15.440;2022-09-27T07:28:11;95408.41;;;13.36;100.00
3668;BME280;24099;47.102;15.440;2022-09-27T07:30:40;95420.66;;;13.25;100.00
3668;BME280;24099;47.102;15.440;2022-09-27T07:33:08;95422.13;;;13.33;100.00
3668;BME280;24099;47.102;15.440;2022-09-27T07:35:40;95425.63;;;13.22;100.00
3668;BME280;24099;47.102;15.440;2022-09-27T07:38:10;95424.84;;;13.38;100.00
3668;BME280;24099;47.102;15.440;2022-09-27T07:40:40;95437.06;;;13.44;100.00
3668;BME280;24099;47.102;15.440;2022-09-27T07:43:08;95439.72;;;13.44;100.00
3668;BME280;24099;47.102;15.440;2022-09-27T07:45:37;95437.63;;;13.46;100.00
3668;BME280;24099;47.102;15.440;2022-09-27T07:48:15;95445.97;;;13.55;100.00
3668;BME280;24099;47.102;15.440;2022-09-27T07:51:10;95442.66;;;13.48;100.00
3668;BME280;24099;47.102;15.440;2022-09-27T07:53:47;95446.91;;;13.49;100.00
3668;BME280;24099;47.102;15.440;2022-09-27T07:56:34;95443.38;;;13.43;100.00
3668;BME280;24099;47.102;15.440;2022-09-27T07:59:03;95446.50;;;13.40;100.00
3668;BME280;24099;47.102;15.440;2022-09-27T08:01:30;95447.81;;;13.37;100.00
3668;BME280;24099;47.102;15.440;2022-09-27T08:04:00;95454.81;;;13.65;100.00
3668;BME280;24099;47.102;15.440;2022-09-27T08:06:29;95448.84;;;13.53;100.00
3668;BME280;24099;47.102;15.440;2022-09-27T08:08:57;95457.56;;;13.54;100.00
3668;BME280;24099;47.102;15.440;2022-09-27T08:11:27;95455.06;;;13.64;100.00
3668;BME280;24099;47.102;15.440;2022-09-27T08:13:54;95457.47;;;13.65;100.00
3668;BME280;24099;47.102;15.440;2022-09-27T08:16:27;95454.38;;;13.52;100.00
3668;BME280;24099;47.102;15.440;2022-09-27T08:19:24;95458.59;;;13.53;100.00
3668;BME280;24099;47.102;15.440;2022-09-27T08:22:06;95460.81;;;13.77;100.00
3668;BME280;24099;47.102;15.440;2022-09-27T08:25:04;95452.81;;;13.72;100.00
3668;BME280;24099;47.102;15.440;2022-09-27T08:27:38;95458.97;;;13.78;100.00
3668;BME280;24099;47.102;15.440;2022-09-27T08:30:18;95454.13;;;13.92;100.00
3668;BME280;24099;47.102;15.440;2022-09-27T08:32:45;95461.75;;;13.88;100.00
3668;BME280;24099;47.102;15.440;2022-09-27T08:35:13;95459.03;;;13.83;100.00
3668;BME280;24099;47.102;15.440;2022-09-27T08:37:43;95459.72;;;13.95;100.00
3668;BME280;24099;47.102;15.440;2022-09-27T08:40:19;95461.09;;;13.81;100.00
3668;BME280;24099;47.102;15.440;2022-09-27T08:42:59;95464.97;;;14.12;100.00
3668;BME280;24099;47.102;15.440;2022-09-27T08:45:33;95460.34;;;14.02;100.00
3668;BME280;24099;47.102;15.440;2022-09-27T08:48:04;95460.53;;;13.96;100.00
3668;BME280;24099;47.102;15.440;2022-09-27T08:50:35;95462.63;;;14.16;100.00
3668;BME280;24099;47.102;15.440;2022-09-27T08:53:22;95456.31;;;14.00;100.00
3668;BME280;24099;47.102;15.440;2022-09-27T08:55:55;95462.56;;;14.10;100.00
3668;BME280;24099;47.102;15.440;2022-09-27T08:58:29;95462.50;;;14.27;100.00
3668;BME280;24099;47.102;15.440;2022-09-27T09:01:00;95464.25;;;14.17;100.00
3668;BME280;24099;47.102;15.440;2022-09-27T09:03:36;95466.88;;;13.95;100.00
3668;BME280;24099;47.102;15.440;2022-09-27T09:06:14;95464.28;;;14.22;100.00
3668;BME280;24099;47.102;15.440;2022-09-27T09:09:08;95463.59;;;14.31;100.00
3668;BME280;24099;47.102;15.440;2022-09-27T09:11:55;95455.75;;;14.36;100.00
3668;BME280;24099;47.102;15.440;2022-09-27T09:14:59;95454.25;;;14.45;100.00
3668;BME280;24099;47.102;15.440;2022-09-27T09:17:51;95459.72;;;14.39;100.00
3668;BME280;24099;47.102;15.440;2022-09-27T09:20:50;95463.44;;;14.16;100.00
3668;BME280;24099;47.102;15.440;2022-09-27T09:23:51;95460.78;;;14.38;100.00
3668;BME280;24099;47.102;15.440;2022-09-27T09:26:33;95462.56;;;14.32;100.00
3668;BME280;24099;47.102;15.440;2022-09-27T09:29:18;95465.72;;;14.51;100.00
3668;BME280;24099;47.102;15.440;2022-09-27T09:31:54;95463.81;;;14.46;100.00
3668;BME280;24099;47.102;15.440;2022-09-27T09:34:30;95465.47;;;14.53;100.00
3668;BME280;24099;47.102;15.440;2022-09-27T09:37:02;95466.75;;;14.50;100.00
3668;BME280;24099;47.102;15.440;2022-09-27T09:39:38;95467.81;;;14.49;100.00
3668;BME280;24099;47.102;15.440;2022-09-27T09:42:14;95474.88;;;14.43;100.00
3668;BME280;24099;47.102;15.440;2022-09-27T09:44:48;95471.47;;;14.70;100.00
3668;BME280;24099;47.102;15.440;2022-09-27T09:47:28;95477.72;;;14.59;100.00
3668;BME280;24099;47.102;15.440;2022-09-27T09:50:04;95478.31;;;14.66;100.00
3668;BME280;24099;47.102;15.440;2022-09-27T09:52:41;95474.75;;;14.77;100.00
3668;BME280;24099;47.102;15.440;2022-09-27T09:55:18;95480.97;;;14.66;100.00
3668;BME280;24099;47.102;15.440;2022-09-27T09:58:03;95481.59;;;14.51;100.00
3668;BME280;24099;47.102;15.440;2022-09-27T10:00:41;95482.06;;;14.26;100.00
3668;BME280;24099;47.102;15.440;2022-09-27T10:03:11;95497.72;;;14.50;100.00
3668;BME280;24099;47.102;15.440;2022-09-27T10:05:43;95498.88;;;14.15;100.00
3668;BME280;24099;47.102;15.440;2022-09-27T10:08:16;95508.19;;;14.01;100.00
3668;BME280;24099;47.102;15.440;2022-09-27T10:10:47;95508.94;;;13.79;100.00
3668;BME280;24099;47.102;15.440;2022-09-27T10:13:46;95514.94;;;13.36;100.00
3668;BME280;24099;47.102;15.440;2022-09-27T10:16:16;95504.09;;;13.21;100.00
3668;BME280;24099;47.102;15.440;2022-09-27T10:18:46;95494.47;;;13.65;100.00
3668;BME280;24099;47.102;15.440;2022-09-27T10:21:23;95481.63;;;13.07;100.00
3668;BME280;24099;47.102;15.440;2022-09-27T10:24:04;95476.72;;;13.27;100.00
3668;BME280;24099;47.102;15.440;2022-09-27T10:26:58;95482.00;;;13.27;100.00
3668;BME280;24099;47.102;15.440;2022-09-27T10:29:31;95486.03;;;13.01;100.00
3668;BME280;24099;47.102;15.440;2022-09-27T10:32:02;95471.16;;;13.12;100.00
3668;BME280;24099;47.102;15.440;2022-09-27T10:34:41;95469.50;;;13.23;100.00
3668;BME280;24099;47.102;15.440;2022-09-27T10:37:17;95476.22;;;13.14;100.00
3668;BME280;24099;47.102;15.440;2022-09-27T10:39:57;95485.03;;;13.19;100.00
3668;BME280;24099;47.102;15.440;2022-09-27T10:42:34;95483.44;;;13.35;100.00
3668;BME280;24099;47.102;15.440;2022-09-27T10:45:27;95489.34;;;13.42;100.00
3668;BME280;24099;47.102;15.440;2022-09-27T10:48:00;95498.84;;;13.38;100.00
3668;BME280;24099;47.102;15.440;2022-09-27T10:50:56;95498.19;;;13.31;100.00
3668;BME280;24099;47.102;15.440;2022-09-27T10:53:37;95502.75;;;12.90;100.00
3668;BME280;24099;47.102;15.440;2022-09-27T10:56:22;95504.94;;;12.82;100.00
3668;BME280;24099;47.102;15.440;2022-09-27T10:58:51;95502.28;;;13.10;100.00
3668;BME280;24099;47.102;15.440;2022-09-27T11:01:21;95503.94;;;13.28;100.00
3668;BME280;24099;47.102;15.440;2022-09-27T11:04:21;95508.97;;;13.29;100.00
3668;BME280;24099;47.102;15.440;2022-09-27T11:06:50;95506.19;;;13.36;100.00
3668;BME280;24099;47.102;15.440;2022-09-27T11:09:21;95507.00;;;13.53;100.00
3668;BME280;24099;47.102;15.440;2022-09-27T11:12:07;95495.28;;;13.66;100.00
3668;BME280;24099;47.102;15.440;2022-09-27T11:14:37;95497.84;;;13.44;100.00
3668;BME280;24099;47.102;15.440;2022-09-27T11:17:14;95488.88;;;13.45;100.00
3668;BME280;24099;47.102;15.440;2022-09-27T11:20:05;95491.13;;;13.53;100.00
3668;BME280;24099;47.102;15.440;2022-09-27T11:25:55;95496.66;;;13.52;100.00
3668;BME280;24099;47.102;15.440;2022-09-27T11:28:37;95478.97;;;13.35;100.00
3668;BME280;24099;47.102;15.440;2022-09-27T11:31:25;95477.69;;;13.55;100.00
3668;BME280;24099;47.102;15.440;2022-09-27T11:34:17;95475.56;;;13.73;100.00
3668;BME280;24099;47.102;15.440;2022-09-27T11:37:03;95470.91;;;13.64;100.00
3668;BME280;24099;47.102;15.440;2022-09-27T11:39:49;95468.78;;;13.44;100.00
3668;BME280;24099;47.102;15.440;2022-09-27T11:43:00;95476.72;;;13.44;100.00
3668;BME280;24099;47.102;15.440;2022-09-27T11:45:48;95466.22;;;13.49;100.00
3668;BME280;24099;47.102;15.440;2022-09-27T11:51:29;95460.91;;;13.66;100.00
3668;BME280;24099;47.102;15.440;2022-09-27T11:54:22;95455.69;;;13.71;100.00
3668;BME280;24099;47.102;15.440;2022-09-27T11:57:01;95452.72;;;13.67;100.00
3668;BME280;24099;47.102;15.440;2022-09-27T12:00:02;95457.13;;;13.78;100.00
3668;BME280;24099;47.102;15.440;2022-09-27T12:06:04;95451.00;;;13.95;100.00
3668;BME280;24099;47.102;15.440;2022-09-27T12:09:08;95457.38;;;13.99;100.00
3668;BME280;24099;47.102;15.440;2022-09-27T12:11:40;95457.69;;;14.02;100.00
3668;BME280;24099;47.102;15.440;2022-09-27T12:14:18;95461.13;;;14.03;100.00
3668;BME280;24099;47.102;15.440;2022-09-27T12:16:50;95463.75;;;13.98;100.00
3668;BME280;24099;47.102;15.440;2022-09-27T12:19:24;95461.03;;;13.93;100.00
3668;BME280;24099;47.102;15.440;2022-09-27T12:22:06;95466.88;;;13.95;100.00
3668;BME280;24099;47.102;15.440;2022-09-27T12:24:42;95467.47;;;14.02;100.00
3668;BME280;24099;47.102;15.440;2022-09-27T12:27:31;95472.19;;;14.00;100.00
3668;BME280;24099;47.102;15.440;2022-09-27T12:30:03;95482.25;;;13.98;100.00
3668;BME280;24099;47.102;15.440;2022-09-27T12:32:36;95477.25;;;14.01;100.00
3668;BME280;24099;47.102;15.440;2022-09-27T12:35:18;95479.91;;;14.01;100.00
3668;BME280;24099;47.102;15.440;2022-09-27T12:37:54;95488.63;;;14.02;100.00
3668;BME280;24099;47.102;15.440;2022-09-27T12:40:28;95493.31;;;13.95;100.00
3668;BME280;24099;47.102;15.440;2022-09-27T12:43:05;95486.22;;;14.00;100.00
3668;BME280;24099;47.102;15.440;2022-09-27T12:46:05;95494.25;;;14.05;100.00
3668;BME280;24099;47.102;15.440;2022-09-27T12:48:42;95498.06;;;14.14;100.00
3668;BME280;24099;47.102;15.440;2022-09-27T12:51:19;95498.25;;;14.08;100.00
3668;BME280;24099;47.102;15.440;2022-09-27T12:57:22;95492.16;;;13.69;100.00
3668;BME280;24099;47.102;15.440;2022-09-27T13:00:04;95489.69;;;14.01;100.00
3668;BME280;24099;47.102;15.440;2022-09-27T13:03:20;95496.81;;;14.00;100.00
3668;BME280;24099;47.102;15.440;2022-09-27T13:06:26;95493.16;;;13.85;100.00
3668;BME280;24099;47.102;15.440;2022-09-27T13:12:22;95504.06;;;13.88;100.00
3668;BME280;24099;47.102;15.440;2022-09-27T13:14:59;95501.00;;;13.96;100.00
3668;BME280;24099;47.102;15.440;2022-09-27T13:17:50;95497.53;;;13.74;100.00
3668;BME280;24099;47.102;15.440;2022-09-27T13:20:42;95498.72;;;14.05;100.00
3668;BME280;24099;47.102;15.440;2022-09-27T13:23:58;95501.44;;;14.10;100.00
3668;BME280;24099;47.102;15.440;2022-09-27T13:26:46;95503.47;;;14.03;100.00
3668;BME280;24099;47.102;15.440;2022-09-27T13:29:31;95499.38;;;14.12;100.00
3668;BME280;24099;47.102;15.440;2022-09-27T13:32:21;95495.41;;;13.93;100.00
3668;BME280;24099;47.102;15.440;2022-09-27T13:35:19;95496.88;;;14.05;100.00
3668;BME280;24099;47.102;15.440;2022-09-27T13:38:21;95492.59;;;14.21;100.00
3668;BME280;24099;47.102;15.440;2022-09-27T13:40:51;95493.09;;;14.18;100.00
3668;BME280;24099;47.102;15.440;2022-09-27T13:43:56;95500.81;;;14.03;100.00
3668;BME280;24099;47.102;15.440;2022-09-27T13:47:03;95506.28;;;14.35;100.00
3668;BME280;24099;47.102;15.440;2022-09-27T13:49:46;95505.72;;;14.33;100.00
3668;BME280;24099;47.102;15.440;2022-09-27T13:52:45;95515.50;;;14.32;100.00
3668;BME280;24099;47.102;15.440;2022-09-27T13:55:45;95505.25;;;14.19;100.00
3668;BME280;24099;47.102;15.440;2022-09-27T13:58:41;95503.31;;;14.31;100.00
3668;BME280;24099;47.102;15.440;2022-09-27T14:01:34;95512.59;;;14.34;100.00
3668;BME280;24099;47.102;15.440;2022-09-27T14:04:35;95512.53;;;14.29;100.00